createdAt,value
2018-07-02T00:00:42.054Z,94.20
2018-07-02T00:03:12.497Z,94.20
2018-07-02T00:05:52.856Z,94.10
2018-07-02T00:08:23.393Z,94.10
2018-07-02T00:10:53.850Z,94.20
2018-07-02T00:13:23.969Z,94.50
2018-07-02T00:15:54.438Z,94.70
2018-07-02T00:18:24.396Z,94.60
2018-07-02T00:20:54.199Z,94.50
2018-07-02T00:23:23.932Z,94.30
2018-07-02T00:25:53.646Z,94.30
2018-07-02T00:28:23.732Z,94.30
2018-07-02T00:30:53.706Z,94.30
2018-07-02T00:33:23.319Z,94.10
2018-07-02T00:35:53.230Z,94.10
2018-07-02T00:38:23.593Z,94.10
2018-07-02T00:40:54.105Z,94.30
2018-07-02T00:43:24.148Z,94.30
2018-07-02T00:45:54.062Z,94.50
2018-07-02T00:48:23.644Z,94.70
2018-07-02T00:50:54.398Z,94.60
2018-07-02T00:53:24.108Z,95.00
2018-07-02T00:55:54.309Z,94.50
2018-07-02T00:58:23.920Z,94.60
2018-07-02T01:00:53.592Z,94.10
2018-07-02T01:03:23.124Z,94.30
2018-07-02T01:05:52.777Z,94.50
2018-07-02T01:08:22.552Z,94.50
2018-07-02T01:10:52.256Z,94.60
2018-07-02T01:13:21.877Z,94.10
2018-07-02T01:15:52.480Z,93.60
2018-07-02T01:18:22.318Z,93.40
2018-07-02T01:20:51.952Z,92.90
2018-07-02T01:23:21.549Z,92.90
2018-07-02T01:25:51.272Z,92.30
2018-07-02T01:28:21.340Z,92.30
2018-07-02T01:30:51.156Z,92.20
2018-07-02T01:33:21.264Z,91.60
2018-07-02T01:35:50.881Z,91.40
2018-07-02T01:38:20.632Z,91.60
2018-07-02T01:40:50.346Z,91.30
2018-07-02T01:43:19.916Z,91.10
2018-07-02T01:45:49.920Z,91.20
2018-07-02T01:48:20.101Z,91.30
2018-07-02T01:50:50.762Z,90.60
2018-07-02T01:53:20.542Z,90.60
2018-07-02T01:55:50.950Z,90.40
2018-07-02T01:58:21.759Z,90.00
2018-07-02T02:00:51.603Z,89.50
2018-07-02T02:03:21.602Z,89.20
2018-07-02T02:05:51.840Z,88.80
2018-07-02T02:08:21.830Z,88.70
2018-07-02T02:10:52.087Z,88.50
2018-07-02T02:13:21.657Z,88.80
2018-07-02T02:15:51.270Z,87.80
2018-07-02T02:18:20.922Z,86.60
2018-07-02T02:20:50.797Z,86.80
2018-07-02T02:23:20.401Z,85.90
2018-07-02T02:25:50.063Z,85.80
2018-07-02T02:28:20.005Z,86.60
2018-07-02T02:30:50.600Z,85.20
2018-07-02T02:33:20.831Z,84.70
2018-07-02T02:35:50.629Z,85.20
2018-07-02T02:38:20.610Z,84.50
2018-07-02T02:40:51.247Z,85.30
2018-07-02T02:43:21.257Z,85.50
2018-07-02T02:45:51.973Z,85.40
2018-07-02T02:48:22.398Z,85.20
2018-07-02T02:50:57.465Z,86.60
2018-07-02T02:53:27.401Z,85.70
2018-07-02T02:55:57.495Z,85.60
2018-07-02T02:58:27.202Z,86.10
2018-07-02T03:00:57.140Z,86.40
2018-07-02T03:03:27.137Z,85.50
2018-07-02T03:05:56.960Z,85.90
2018-07-02T03:08:26.556Z,85.90
2018-07-02T03:10:56.204Z,86.60
2018-07-02T03:13:25.785Z,86.60
2018-07-02T03:15:56.202Z,86.90
2018-07-02T03:18:25.921Z,86.70
2018-07-02T03:20:55.592Z,86.50
2018-07-02T03:23:25.428Z,86.40
2018-07-02T03:25:54.999Z,86.70
2018-07-02T03:28:24.628Z,86.70
2018-07-02T03:30:54.542Z,86.60
2018-07-02T03:33:24.190Z,87.00
2018-07-02T03:35:54.597Z,87.30
2018-07-02T03:38:24.377Z,87.60
2018-07-02T03:40:54.602Z,87.50
2018-07-02T03:43:24.169Z,87.30
2018-07-02T03:45:53.765Z,88.00
2018-07-02T03:48:23.367Z,87.20
2018-07-02T03:50:53.501Z,86.90
2018-07-02T03:53:23.282Z,86.90
2018-07-02T03:58:22.910Z,86.60
2018-07-02T04:00:53.463Z,85.40
2018-07-02T04:03:23.661Z,85.10
2018-07-02T04:05:53.417Z,84.60
2018-07-02T04:08:22.970Z,84.50
2018-07-02T04:10:52.885Z,84.60
2018-07-02T04:13:22.828Z,83.60
2018-07-02T04:15:53.371Z,82.90
2018-07-02T04:18:23.289Z,81.90
2018-07-02T04:20:53.152Z,81.10
2018-07-02T04:23:23.288Z,79.50
2018-07-02T04:25:53.310Z,78.20
2018-07-02T04:28:23.585Z,76.30
2018-07-02T04:30:53.614Z,76.10
2018-07-02T04:33:23.689Z,75.40
2018-07-02T04:35:53.341Z,74.90
2018-07-02T04:38:22.903Z,75.10
2018-07-02T04:40:52.476Z,74.00
2018-07-02T04:43:22.440Z,73.20
2018-07-02T04:45:52.310Z,72.80
2018-07-02T04:48:22.248Z,71.30
2018-07-02T04:50:52.478Z,69.30
2018-07-02T04:53:22.381Z,67.50
2018-07-02T04:55:52.487Z,66.40
2018-07-02T04:58:22.216Z,64.10
2018-07-02T05:00:52.316Z,61.60
2018-07-02T05:03:22.037Z,61.70
2018-07-02T05:05:52.782Z,59.80
2018-07-02T05:08:22.510Z,59.70
2018-07-02T05:10:52.617Z,59.10
2018-07-02T05:13:22.317Z,57.20
2018-07-02T05:15:52.210Z,58.40
2018-07-02T05:18:22.146Z,56.20
2018-07-02T05:20:52.351Z,54.60
2018-07-02T05:23:21.959Z,53.80
2018-07-02T05:25:52.204Z,54.10
2018-07-02T05:28:22.406Z,52.80
2018-07-02T05:30:52.989Z,49.60
2018-07-02T05:33:23.360Z,49.70
2018-07-02T05:35:53.092Z,51.30
2018-07-02T05:38:22.982Z,51.80
2018-07-02T05:40:52.916Z,50.30
2018-07-02T05:43:22.844Z,50.00
2018-07-02T05:45:52.795Z,48.90
2018-07-02T05:48:22.628Z,47.90
2018-07-02T05:50:52.901Z,45.90
2018-07-02T05:53:22.560Z,44.50
2018-07-02T05:55:52.554Z,44.10
2018-07-02T05:58:22.440Z,42.60
2018-07-02T06:00:53.610Z,41.70
2018-07-02T06:03:23.362Z,40.60
2018-07-02T06:05:53.269Z,39.80
2018-07-02T06:08:23.540Z,39.50
2018-07-02T06:10:53.429Z,38.60
2018-07-02T06:13:23.868Z,39.30
2018-07-02T06:15:53.934Z,38.20
2018-07-02T06:18:24.408Z,37.60
2018-07-02T06:20:54.660Z,37.80
2018-07-02T06:23:25.037Z,38.30
2018-07-02T06:25:55.208Z,37.10
2018-07-02T06:28:25.485Z,38.00
2018-07-02T06:30:55.846Z,38.50
2018-07-02T06:33:25.717Z,37.90
2018-07-02T06:35:55.633Z,38.50
2018-07-02T06:38:25.581Z,38.10
2018-07-02T06:40:55.521Z,36.50
2018-07-02T06:43:25.504Z,36.70
2018-07-02T06:45:55.094Z,36.00
2018-07-02T06:48:24.981Z,36.00
2018-07-02T06:50:55.156Z,35.50
2018-07-02T06:53:26.727Z,34.90
2018-07-02T06:58:26.765Z,34.60
2018-07-02T07:00:56.645Z,34.50
2018-07-02T07:03:26.749Z,34.10
2018-07-02T07:05:57.141Z,33.20
2018-07-02T07:08:26.760Z,33.40
2018-07-02T07:10:56.973Z,35.30
2018-07-02T07:13:28.489Z,36.70
2018-07-02T07:15:58.473Z,36.50
2018-07-02T07:18:28.408Z,37.20
2018-07-02T07:20:58.916Z,39.00
2018-07-02T07:23:28.986Z,39.60
2018-07-02T07:25:58.597Z,45.50
2018-07-02T07:28:28.765Z,48.80
2018-07-02T07:30:59.078Z,49.40
2018-07-02T07:33:28.668Z,49.60
2018-07-02T07:35:58.589Z,50.90
2018-07-02T07:38:28.578Z,50.60
2018-07-02T07:43:27.965Z,51.20
2018-07-02T07:45:58.679Z,51.80
2018-07-02T07:48:28.876Z,51.40
2018-07-02T07:50:59.329Z,52.00
2018-07-02T07:53:28.861Z,53.00
2018-07-02T07:55:58.817Z,53.20
2018-07-02T07:58:29.563Z,53.60
2018-07-02T08:01:00.141Z,53.90
2018-07-02T08:03:30.590Z,54.20
2018-07-02T08:06:01.233Z,54.10
2018-07-02T08:08:32.149Z,54.20
2018-07-02T08:11:04.747Z,53.90
2018-07-02T08:13:35.457Z,55.80
2018-07-02T08:16:05.168Z,55.70
2018-07-02T08:18:35.709Z,56.50
2018-07-02T08:21:05.601Z,55.80
2018-07-02T08:23:35.500Z,55.60
2018-07-02T08:26:05.233Z,56.00
2018-07-02T08:28:35.219Z,56.30
2018-07-02T08:31:05.319Z,56.40
2018-07-02T08:33:35.205Z,56.70
2018-07-02T08:36:04.974Z,56.80
2018-07-02T08:38:34.757Z,57.20
2018-07-02T08:41:04.902Z,56.70
2018-07-02T08:43:34.525Z,56.70
2018-07-02T08:46:04.521Z,56.80
2018-07-02T08:48:34.845Z,56.30
2018-07-02T08:51:04.564Z,56.80
2018-07-02T08:53:34.481Z,56.90
2018-07-02T08:56:04.193Z,56.90
2018-07-02T08:58:33.792Z,57.30
2018-07-02T09:01:04.965Z,58.70
2018-07-02T09:03:34.493Z,58.60
2018-07-02T09:06:04.868Z,58.30
2018-07-02T09:08:35.011Z,57.90
2018-07-02T09:11:05.042Z,57.20
2018-07-02T09:13:35.465Z,56.90
2018-07-02T09:16:05.273Z,56.30
2018-07-02T09:18:35.694Z,56.90
2018-07-02T09:21:05.873Z,56.70
2018-07-02T09:23:36.130Z,56.00
2018-07-02T09:26:06.688Z,55.40
2018-07-02T09:28:36.854Z,56.00
2018-07-02T09:31:06.936Z,56.10
2018-07-02T09:33:37.437Z,56.00
2018-07-02T09:36:07.041Z,55.90
2018-07-02T09:38:36.948Z,55.60
2018-07-02T09:41:06.904Z,54.80
2018-07-02T09:43:37.045Z,55.90
2018-07-02T09:46:07.035Z,56.30
2018-07-02T09:48:37.430Z,55.10
2018-07-02T09:51:08.119Z,56.60
2018-07-02T09:53:38.014Z,56.30
2018-07-02T09:56:08.065Z,55.70
2018-07-02T09:58:38.469Z,55.90
2018-07-02T10:01:09.157Z,55.10
2018-07-02T10:03:40.398Z,55.80
2018-07-02T10:06:10.829Z,55.50
2018-07-02T10:08:40.830Z,55.90
2018-07-02T10:11:11.458Z,56.00
2018-07-02T10:13:41.613Z,56.00
2018-07-02T10:16:11.540Z,55.50
2018-07-02T10:18:41.832Z,55.00
2018-07-02T10:21:11.637Z,55.60
2018-07-02T10:23:41.954Z,54.10
2018-07-02T10:26:12.300Z,54.30
2018-07-02T10:28:42.646Z,54.60
2018-07-02T10:31:12.397Z,54.70
2018-07-02T10:33:42.140Z,54.00
2018-07-02T10:36:12.572Z,54.40
2018-07-02T10:38:42.263Z,54.20
2018-07-02T10:41:12.525Z,54.70
2018-07-02T10:43:42.778Z,53.30
2018-07-02T10:46:13.646Z,53.20
2018-07-02T10:48:43.985Z,52.50
2018-07-02T10:51:14.048Z,52.50
2018-07-02T10:53:43.592Z,53.00
2018-07-02T10:56:13.533Z,53.10
2018-07-02T10:58:43.484Z,52.80
2018-07-02T11:01:14.031Z,52.00
2018-07-02T11:03:43.703Z,52.10
2018-07-02T11:08:42.812Z,51.70
2018-07-02T11:11:13.356Z,52.00
2018-07-02T11:13:43.628Z,50.70
2018-07-02T11:16:13.276Z,51.00
2018-07-02T11:21:13.190Z,51.50
2018-07-02T11:23:44.038Z,52.40
2018-07-02T11:26:14.742Z,52.30
2018-07-02T11:28:45.927Z,53.10
2018-07-02T11:31:16.224Z,52.80
2018-07-02T11:33:47.717Z,53.60
2018-07-02T11:36:17.433Z,52.60
2018-07-02T11:38:47.049Z,53.10
2018-07-02T11:41:17.246Z,53.00
2018-07-02T11:43:46.821Z,53.70
2018-07-02T11:46:16.757Z,53.80
2018-07-02T11:48:47.032Z,52.60
2018-07-02T11:51:16.913Z,52.00
2018-07-02T11:53:47.161Z,52.20
2018-07-02T11:56:16.816Z,51.70
2018-07-02T11:58:46.945Z,51.00
2018-07-02T12:01:16.610Z,51.80
2018-07-02T12:03:46.743Z,51.90
2018-07-02T12:06:16.453Z,52.00
2018-07-02T12:08:46.296Z,53.10
2018-07-02T12:11:17.177Z,52.80
2018-07-02T12:13:47.678Z,50.10
2018-07-02T12:16:17.827Z,52.20
2018-07-02T12:18:48.565Z,49.00
2018-07-02T12:21:18.964Z,51.90
2018-07-02T12:23:50.024Z,51.30
2018-07-02T12:26:21.101Z,51.30
2018-07-02T12:28:50.948Z,50.10
2018-07-02T12:33:50.298Z,47.00
2018-07-02T12:36:20.329Z,49.30
2018-07-02T12:38:50.473Z,48.50
2018-07-02T12:41:20.896Z,50.00
2018-07-02T12:43:50.609Z,49.60
2018-07-02T12:46:21.237Z,49.60
2018-07-02T12:48:50.895Z,49.00
2018-07-02T12:51:25.538Z,48.90
2018-07-02T12:53:55.663Z,48.30
2018-07-02T12:56:29.290Z,44.90
2018-07-02T12:59:01.871Z,46.70
2018-07-02T13:01:32.055Z,46.20
2018-07-02T13:04:02.412Z,48.00
2018-07-02T13:06:32.967Z,47.30
2018-07-02T13:09:03.070Z,46.80
2018-07-02T13:11:33.057Z,48.20
2018-07-02T13:14:03.135Z,47.60
2018-07-02T13:16:33.323Z,47.90
2018-07-02T13:19:03.237Z,46.60
2018-07-02T13:21:33.193Z,47.30
2018-07-02T13:24:04.152Z,46.50
2018-07-02T13:26:36.224Z,46.30
2018-07-02T13:31:37.197Z,45.90
2018-07-02T13:34:08.397Z,47.00
2018-07-02T13:39:11.809Z,45.90
2018-07-02T13:41:41.774Z,46.50
2018-07-02T13:44:11.596Z,46.20
2018-07-02T13:46:41.569Z,45.90
2018-07-02T13:49:11.334Z,46.80
2018-07-02T13:51:41.142Z,47.10
2018-07-02T13:54:11.709Z,47.80
2018-07-02T13:56:41.814Z,45.80
2018-07-02T13:59:12.044Z,47.30
2018-07-02T14:01:42.600Z,46.60
2018-07-02T14:04:13.522Z,47.10
2018-07-02T14:06:43.365Z,48.30
2018-07-02T14:09:13.308Z,47.60
2018-07-02T14:11:44.020Z,47.30
2018-07-02T14:14:14.460Z,47.40
2018-07-02T14:16:44.316Z,48.10
2018-07-02T14:19:14.101Z,47.80
2018-07-02T14:21:45.682Z,47.50
2018-07-02T14:24:15.768Z,47.00
2018-07-02T14:26:45.597Z,47.70
2018-07-02T14:29:16.285Z,46.90
2018-07-02T14:31:46.436Z,48.30
2018-07-02T14:34:16.380Z,48.60
2018-07-02T14:36:46.253Z,47.50
2018-07-02T14:39:15.899Z,48.60
2018-07-02T14:41:45.820Z,48.70
2018-07-02T14:44:17.067Z,47.70
2018-07-02T14:49:16.908Z,46.60
2018-07-02T14:54:16.624Z,47.40
2018-07-02T14:56:46.520Z,46.90
2018-07-02T14:59:16.129Z,49.00
2018-07-02T15:01:46.045Z,47.20
2018-07-02T15:04:16.045Z,48.40
2018-07-02T15:06:46.061Z,48.00
2018-07-02T15:09:16.114Z,43.70
2018-07-02T15:11:45.981Z,47.60
2018-07-02T15:14:16.092Z,46.10
2018-07-02T15:16:46.150Z,49.10
2018-07-02T15:19:16.122Z,45.80
2018-07-02T15:21:46.360Z,44.10
2018-07-02T15:24:16.976Z,43.70
2018-07-02T15:26:47.254Z,44.20
2018-07-02T15:29:16.937Z,44.50
2018-07-02T15:31:47.377Z,44.80
2018-07-02T15:34:17.170Z,45.70
2018-07-02T15:36:47.250Z,46.60
2018-07-02T15:39:16.884Z,46.80
2018-07-02T15:41:46.595Z,46.90
2018-07-02T15:44:16.448Z,46.70
2018-07-02T15:46:46.274Z,45.60
2018-07-02T15:49:16.173Z,46.60
2018-07-02T15:51:45.926Z,47.10
2018-07-02T15:54:16.609Z,47.20
2018-07-02T15:56:46.619Z,47.80
2018-07-02T15:59:19.209Z,47.70
2018-07-02T16:01:49.533Z,47.50
2018-07-02T16:04:19.522Z,47.50
2018-07-02T16:06:49.352Z,48.10
2018-07-02T16:09:19.797Z,49.20
2018-07-02T16:11:49.917Z,49.20
2018-07-02T16:14:21.508Z,50.40
2018-07-02T16:16:51.175Z,52.00
2018-07-02T16:19:22.287Z,52.20
2018-07-02T16:21:52.772Z,52.80
2018-07-02T16:24:22.568Z,53.30
2018-07-02T16:26:52.377Z,54.30
2018-07-02T16:29:22.734Z,54.30
2018-07-02T16:31:52.636Z,55.10
2018-07-02T16:36:53.026Z,57.00
2018-07-02T16:39:24.489Z,56.90
2018-07-02T16:46:26.016Z,54.90
2018-07-02T16:48:55.725Z,51.80
2018-07-02T16:51:26.016Z,53.20
2018-07-02T16:53:55.556Z,50.90
2018-07-02T16:56:25.036Z,52.70
2018-07-02T16:58:54.604Z,54.10
2018-07-02T17:01:24.109Z,55.90
2018-07-02T17:03:54.016Z,54.60
2018-07-02T17:06:23.642Z,53.80
2018-07-02T17:08:53.174Z,53.40
2018-07-02T17:11:22.706Z,53.80
2018-07-02T17:13:52.172Z,54.70
2018-07-02T17:16:22.720Z,55.50
2018-07-02T17:18:52.374Z,56.30
2018-07-02T17:21:21.813Z,56.90
2018-07-02T17:23:51.301Z,57.80
2018-07-02T17:26:21.238Z,58.20
2018-07-02T17:28:50.969Z,59.20
2018-07-02T17:31:20.594Z,60.20
2018-07-02T17:33:50.144Z,61.20
2018-07-02T17:36:19.576Z,61.60
2018-07-02T17:38:49.117Z,62.20
2018-07-02T17:41:18.580Z,63.70
2018-07-02T17:43:48.145Z,64.70
2018-07-02T17:46:17.706Z,64.80
2018-07-02T17:48:47.180Z,65.00
2018-07-02T17:51:16.593Z,65.10
2018-07-02T17:53:46.211Z,64.90
2018-07-02T17:56:15.668Z,65.30
2018-07-02T17:58:45.162Z,65.50
2018-07-02T18:01:14.669Z,65.70
2018-07-02T18:03:44.093Z,65.70
2018-07-02T18:06:14.661Z,66.50
2018-07-02T18:08:44.089Z,66.80
2018-07-02T18:11:13.687Z,67.30
2018-07-02T18:16:13.278Z,67.30
2018-07-02T18:18:42.878Z,67.20
2018-07-02T18:21:13.185Z,67.90
2018-07-02T18:23:42.757Z,69.50
2018-07-02T18:26:12.237Z,70.10
2018-07-02T18:28:41.958Z,70.70
2018-07-02T18:31:11.446Z,70.50
2018-07-02T18:33:41.044Z,70.80
2018-07-02T18:36:10.653Z,71.80
2018-07-02T18:38:40.525Z,72.20
2018-07-02T18:41:11.275Z,71.60
2018-07-02T18:43:40.935Z,71.30
2018-07-02T18:46:10.435Z,71.90
2018-07-02T18:48:39.890Z,72.30
2018-07-02T18:51:09.573Z,72.50
2018-07-02T18:53:39.140Z,74.30
2018-07-02T18:56:08.557Z,74.60
2018-07-02T18:58:38.216Z,74.60
2018-07-02T19:01:08.906Z,74.70
2018-07-02T19:03:38.537Z,75.30
2018-07-02T19:06:08.597Z,76.30
2018-07-02T19:08:38.473Z,77.20
2018-07-02T19:11:07.909Z,77.50
2018-07-02T19:13:37.775Z,77.90
2018-07-02T19:16:08.987Z,78.90
2018-07-02T19:18:38.594Z,79.20
2018-07-02T19:21:08.468Z,79.80
2018-07-02T19:23:37.942Z,80.10
2018-07-02T19:26:08.487Z,79.80
2018-07-02T19:28:39.005Z,80.30
2018-07-02T19:31:08.585Z,81.40
2018-07-02T19:33:38.374Z,81.30
2018-07-02T19:36:08.030Z,81.50
2018-07-02T19:38:37.671Z,81.70
2018-07-02T19:41:07.949Z,82.20
2018-07-02T19:43:37.732Z,82.60
2018-07-02T19:46:08.748Z,82.90
2018-07-02T19:48:38.312Z,83.40
2018-07-02T19:51:08.195Z,83.70
2018-07-02T19:53:37.900Z,83.80
2018-07-02T19:56:07.487Z,84.20
2018-07-02T19:58:36.957Z,84.40
2018-07-02T20:01:07.094Z,84.40
2018-07-02T20:03:36.667Z,84.70
2018-07-02T20:06:09.537Z,84.60
2018-07-02T20:08:40.133Z,84.30
2018-07-02T20:11:13.099Z,84.90
2018-07-02T20:13:42.853Z,85.40
2018-07-02T20:16:13.407Z,86.40
2018-07-02T20:18:43.921Z,87.10
2018-07-02T20:21:13.833Z,86.80
2018-07-02T20:23:46.617Z,86.50
2018-07-02T20:26:17.349Z,86.40
2018-07-02T20:28:47.747Z,86.30
2018-07-02T20:33:46.837Z,86.30
2018-07-02T20:36:16.576Z,85.90
2018-07-02T20:38:46.541Z,86.30
2018-07-02T20:41:16.544Z,86.30
2018-07-02T20:43:46.286Z,86.60
2018-07-02T20:46:16.718Z,87.00
2018-07-02T20:48:46.890Z,87.60
2018-07-02T20:51:16.805Z,88.50
2018-07-02T20:53:46.642Z,88.30
2018-07-02T20:56:16.261Z,88.80
2018-07-02T20:58:45.790Z,89.60
2018-07-02T21:01:15.346Z,90.00
2018-07-02T21:03:44.913Z,90.10
2018-07-02T21:06:15.285Z,90.20
2018-07-02T21:08:45.620Z,89.90
2018-07-02T21:11:15.584Z,90.20
2018-07-02T21:13:46.274Z,90.40
2018-07-02T21:16:16.295Z,90.40
2018-07-02T21:18:46.642Z,90.50
2018-07-02T21:21:16.427Z,90.80
2018-07-02T21:23:46.245Z,90.80
2018-07-02T21:26:15.947Z,90.70
2018-07-02T21:28:45.863Z,90.60
2018-07-02T21:31:15.822Z,90.60
2018-07-02T21:36:15.553Z,90.60
2018-07-02T21:38:45.527Z,90.60
2018-07-02T21:41:16.098Z,90.50
2018-07-02T21:46:18.429Z,90.20
2018-07-02T21:48:48.882Z,90.20
2018-07-02T21:51:18.437Z,90.10
2018-07-02T21:53:48.371Z,90.00
2018-07-02T21:56:18.735Z,89.80
2018-07-02T21:58:49.357Z,90.00
2018-07-02T22:01:23.412Z,90.20
2018-07-02T22:06:22.212Z,90.50
2018-07-02T22:08:52.054Z,90.40
2018-07-02T22:11:22.493Z,90.40
2018-07-02T22:13:51.913Z,90.20
2018-07-02T22:16:22.053Z,90.20
2018-07-02T22:18:52.426Z,90.20
2018-07-02T22:21:22.390Z,90.00
2018-07-02T22:23:52.698Z,90.00
2018-07-02T22:26:23.560Z,90.00
2018-07-02T22:28:53.449Z,89.80
2018-07-02T22:31:24.222Z,89.00
2018-07-02T22:36:23.499Z,89.10
2018-07-02T22:38:54.104Z,88.90
2018-07-02T22:41:24.116Z,88.70
2018-07-02T22:43:54.145Z,88.10
2018-07-02T22:46:24.630Z,88.00
2018-07-02T22:48:55.045Z,87.80
2018-07-02T22:51:24.982Z,87.70
2018-07-02T22:53:54.892Z,87.30
2018-07-02T22:56:24.498Z,87.00
2018-07-02T22:58:54.402Z,86.70
2018-07-02T23:01:24.942Z,86.60
2018-07-02T23:03:54.861Z,86.50
2018-07-02T23:06:24.856Z,86.40
2018-07-02T23:08:54.748Z,86.10
2018-07-02T23:11:24.880Z,86.40
2018-07-02T23:13:54.879Z,86.40
2018-07-02T23:16:24.340Z,86.50
2018-07-02T23:18:55.095Z,86.40
2018-07-02T23:21:24.812Z,86.50
2018-07-02T23:23:54.413Z,86.80
2018-07-02T23:26:24.336Z,87.20
2018-07-02T23:28:53.989Z,87.20
2018-07-02T23:31:24.325Z,87.20
2018-07-02T23:33:54.093Z,87.50
2018-07-02T23:36:23.686Z,87.80
2018-07-02T23:38:53.703Z,87.50
2018-07-02T23:41:23.751Z,87.80
2018-07-02T23:43:53.664Z,87.80
2018-07-02T23:46:23.356Z,88.00
2018-07-02T23:48:53.978Z,88.20
2018-07-02T23:51:24.073Z,88.60
2018-07-02T23:53:53.789Z,89.10
2018-07-02T23:56:24.037Z,89.50
2018-07-02T23:58:54.757Z,89.90
